NCAR-RAP Real-Time Weather Data

Output produced by METARs form (01 October 2022  05:26 UTC)
found at http://weather.rap.ucar.edu/surface/
 
VDPP 010500Z 19008KT 100V250 9999 SCT015 SCT040 31/24 Q1008
VDPP 010430Z 21006KT 170V240 9999 SCT017 SCT040 32/24 Q1008
VDPP 010400Z 21005KT 140V270 9999 SCT017 SCT040 31/24 Q1009
VDPP 010330Z 20007KT 170V240 9999 SCT017 SCT040 30/25 Q1009
VDPP 010300Z 21006KT 150V260 9999 FEW017 SCT040 30/25 Q1009
VDPP 010230Z 19007KT 160V230 9999 FEW017 SCT040 30/25 Q1009
VDPP 010200Z 19005KT 140V240 9999 FEW017 SCT040 29/26 Q1009
VDPP 010130Z 20005KT 140V230 9999 FEW017 SCT040 29/27 Q1009
VDPP 010100Z 18004KT 9999 FEW017 SCT040 28/26 Q1008
VDPP 010030Z 19004KT 120V290 9999 FEW017 SCT040 27/26 Q1008
VDPP 010000Z 19004KT 9999 FEW017 SCT040 26/25 Q1008
VDPP 302330Z 17003KT 9000 FEW017 SCT040 26/25 Q1008
VDPP 302300Z VRB03KT 9000 FEW017 SCT040 26/25 Q1007
VDPP 302230Z VRB03KT 9000 FEW017 SCT040 26/25 Q1007
VDPP 302200Z 21003KT 9000 FEW017 SCT040 26/25 Q1007
VDPP 302130Z 20003KT 9000 FEW017 SCT040 26/25 Q1007
VDPP 302100Z 20003KT 9000 FEW017 SCT040 26/25 Q1007
VDPP 302030Z 16004KT 9000 FEW017 SCT040 26/25 Q1007
VDPP 302000Z 15003KT 9000 FEW017 SCT040 26/25 Q1007
VDPP 301930Z 16005KT 9000 FEW017 SCT040 26/26 Q1007
VDPP 301900Z 16004KT 9000 FEW017 SCT040 26/26 Q1007
VDPP 301800Z 18004KT 9000 FEW017 SCT040 26/26 Q1007
VDPP 301730Z 18004KT 9000 FEW017 SCT040 26/26 Q1008